createdAt,value
2019-01-19T00:02:46.228Z,18.63
2019-01-19T00:05:52.521Z,15.85
2019-01-19T00:08:37.764Z,17.30
2019-01-19T00:11:42.261Z,18.40
2019-01-19T00:14:48.216Z,19.27
2019-01-19T00:18:07.703Z,20.23
2019-01-19T00:21:11.459Z,21.47
2019-01-19T00:24:23.666Z,18.05
2019-01-19T00:27:36.655Z,20.77
2019-01-19T00:30:23.447Z,19.30
2019-01-19T00:33:36.805Z,19.87
2019-01-19T00:36:46.362Z,21.27
2019-01-19T00:39:55.562Z,17.87
2019-01-19T00:42:53.069Z,19.52
2019-01-19T00:45:53.718Z,23.15
2019-01-19T00:49:00.374Z,19.05
2019-01-19T00:52:29.457Z,22.85
2019-01-19T00:55:20.276Z,18.25
2019-01-19T00:58:42.252Z,19.23
2019-01-19T01:01:42.804Z,18.67
2019-01-19T01:04:55.485Z,18.42
2019-01-19T01:07:58.110Z,17.55
2019-01-19T01:10:56.507Z,17.73
2019-01-19T01:13:54.792Z,19.70
2019-01-19T01:16:44.556Z,18.40
2019-01-19T01:19:57.139Z,17.87
2019-01-19T01:22:56.333Z,18.73
2019-01-19T01:26:10.042Z,20.60
2019-01-19T01:29:11.036Z,23.70
2019-01-19T01:32:02.761Z,19.70
2019-01-19T01:34:53.578Z,22.15
2019-01-19T01:38:04.477Z,21.83
2019-01-19T01:41:20.732Z,22.98
2019-01-19T01:44:12.300Z,21.55
2019-01-19T01:47:24.077Z,19.87
2019-01-19T01:50:30.311Z,21.55
2019-01-19T01:53:32.217Z,20.85
2019-01-19T01:56:07.112Z,26.35
2019-01-19T01:59:14.341Z,22.10
2019-01-19T02:02:06.898Z,20.32
2019-01-19T02:05:15.271Z,22.55
2019-01-19T02:08:05.058Z,21.15
2019-01-19T02:11:15.619Z,20.80
2019-01-19T02:13:51.692Z,21.00
2019-01-19T02:17:04.557Z,22.58
2019-01-19T02:20:26.360Z,22.00
2019-01-19T02:23:45.770Z,24.52
2019-01-19T02:26:44.282Z,19.92
2019-01-19T02:29:35.382Z,22.13
2019-01-19T02:32:51.807Z,20.50
2019-01-19T02:36:03.007Z,26.85
2019-01-19T02:38:57.901Z,28.75
2019-01-19T02:42:01.104Z,21.10
2019-01-19T02:44:55.977Z,20.35
2019-01-19T02:48:09.456Z,22.65
2019-01-19T02:51:06.747Z,26.37
2019-01-19T02:54:19.215Z,25.02
2019-01-19T02:57:28.800Z,23.55
2019-01-19T03:00:32.941Z,27.32
2019-01-19T03:03:29.207Z,24.32
2019-01-19T03:06:18.112Z,23.57
2019-01-19T03:09:11.609Z,28.07
2019-01-19T03:12:33.620Z,24.40
2019-01-19T03:15:29.552Z,26.02
2019-01-19T03:18:56.001Z,26.02
2019-01-19T03:21:40.707Z,27.10
2019-01-19T03:24:42.330Z,24.67
2019-01-19T03:27:38.207Z,28.15
2019-01-19T03:30:36.826Z,28.98
2019-01-19T03:33:44.829Z,24.95
2019-01-19T03:36:38.922Z,26.55
2019-01-19T03:39:38.518Z,27.25
2019-01-19T03:42:35.154Z,30.32
2019-01-19T03:45:16.667Z,30.60
2019-01-19T03:48:02.129Z,31.75
2019-01-19T03:51:09.862Z,31.42
2019-01-19T03:54:38.889Z,33.55
2019-01-19T03:57:36.593Z,33.73
2019-01-19T04:00:31.574Z,28.70
2019-01-19T04:03:56.216Z,30.30
2019-01-19T04:07:09.860Z,30.82
2019-01-19T04:10:12.982Z,27.77
2019-01-19T04:13:17.053Z,33.23
2019-01-19T04:16:30.892Z,32.48
2019-01-19T04:19:29.521Z,34.70
2019-01-19T04:22:30.375Z,34.98
2019-01-19T04:25:15.708Z,35.95
2019-01-19T04:27:45.407Z,35.13
2019-01-19T04:30:15.204Z,33.80
2019-01-19T04:32:44.927Z,32.08
2019-01-19T04:35:14.560Z,36.65
2019-01-19T04:37:44.346Z,39.05
2019-01-19T04:40:14.225Z,31.80
2019-01-19T04:42:45.224Z,38.35
2019-01-19T04:45:15.050Z,32.42
2019-01-19T04:47:44.837Z,32.55
2019-01-19T04:50:14.462Z,34.67
2019-01-19T04:52:44.236Z,34.30
2019-01-19T04:55:13.342Z,34.85
2019-01-19T04:57:43.179Z,34.73
2019-01-19T05:00:17.779Z,38.85
2019-01-19T05:02:47.682Z,39.38
2019-01-19T05:05:17.429Z,42.67
2019-01-19T05:07:47.168Z,38.65
2019-01-19T05:10:16.969Z,40.48
2019-01-19T05:12:46.641Z,38.75
2019-01-19T05:15:18.863Z,39.95
2019-01-19T05:17:48.666Z,33.23
2019-01-19T05:20:18.314Z,32.83
2019-01-19T05:22:48.092Z,31.48
2019-01-19T05:25:17.800Z,30.10
2019-01-19T05:27:47.481Z,32.58
2019-01-19T05:30:19.231Z,30.92
2019-01-19T05:32:49.067Z,28.38
2019-01-19T05:35:18.894Z,30.55
2019-01-19T05:37:48.552Z,27.35
2019-01-19T05:40:18.152Z,26.52
2019-01-19T05:42:47.805Z,26.73
2019-01-19T05:45:17.535Z,27.62
2019-01-19T05:47:47.241Z,28.85
2019-01-19T05:50:19.331Z,25.35
2019-01-19T05:52:49.017Z,24.07
2019-01-19T05:55:18.828Z,25.75
2019-01-19T05:57:48.567Z,24.05
2019-01-19T06:00:35.529Z,21.68
2019-01-19T06:03:06.082Z,23.20
2019-01-19T06:05:37.312Z,21.70
2019-01-19T06:08:06.978Z,22.77
2019-01-19T06:10:36.720Z,26.70
2019-01-19T06:13:06.440Z,23.57
2019-01-19T06:15:36.124Z,23.18
2019-01-19T06:18:05.856Z,21.07
2019-01-19T06:20:35.533Z,22.22
2019-01-19T06:23:05.307Z,24.67
2019-01-19T06:25:35.045Z,23.42
2019-01-19T06:28:04.636Z,19.62
2019-01-19T06:30:34.423Z,20.85
2019-01-19T06:33:04.066Z,20.35
2019-01-19T06:35:33.787Z,18.73
2019-01-19T06:38:03.521Z,21.00
2019-01-19T06:40:33.505Z,22.77
2019-01-19T06:43:03.236Z,25.62
2019-01-19T06:45:32.913Z,22.00
2019-01-19T06:48:02.528Z,18.85
2019-01-19T06:50:32.281Z,17.82
2019-01-19T06:53:02.105Z,19.45
2019-01-19T06:55:33.854Z,22.32
2019-01-19T06:58:03.708Z,22.80
2019-01-19T07:00:33.564Z,19.85
2019-01-19T07:03:03.223Z,19.65
2019-01-19T07:05:33.040Z,17.35
2019-01-19T07:08:02.672Z,15.83
2019-01-19T07:10:32.457Z,15.55
2019-01-19T07:13:02.225Z,16.12
2019-01-19T07:15:31.969Z,17.62
2019-01-19T07:18:01.808Z,21.35
2019-01-19T07:20:31.592Z,15.80
2019-01-19T07:23:01.266Z,22.90
2019-01-19T07:25:30.915Z,25.23
2019-01-19T07:28:00.530Z,15.08
2019-01-19T07:30:30.378Z,15.35
2019-01-19T07:33:00.012Z,16.97
2019-01-19T07:35:29.710Z,15.68
2019-01-19T07:37:59.468Z,23.57
2019-01-19T07:40:29.257Z,16.00
2019-01-19T07:43:02.487Z,16.67
2019-01-19T07:45:32.093Z,16.17
2019-01-19T07:48:01.886Z,13.15
2019-01-19T07:50:31.676Z,14.35
2019-01-19T07:53:01.394Z,12.60
2019-01-19T07:55:31.050Z,12.60
2019-01-19T07:58:00.762Z,13.60
2019-01-19T08:00:31.918Z,14.43
2019-01-19T08:03:01.726Z,11.97
2019-01-19T08:05:31.472Z,16.45
2019-01-19T08:08:01.101Z,13.22
2019-01-19T08:10:30.879Z,12.95
2019-01-19T08:13:00.492Z,15.18
2019-01-19T08:15:30.241Z,15.23
2019-01-19T08:17:59.976Z,13.93
2019-01-19T08:20:29.726Z,12.98
2019-01-19T08:22:59.459Z,12.53
2019-01-19T08:25:29.154Z,14.00
2019-01-19T08:27:58.920Z,10.55
2019-01-19T08:30:30.165Z,10.03
2019-01-19T08:32:59.797Z,11.30
2019-01-19T08:35:29.950Z,12.07
2019-01-19T08:37:59.578Z,13.32
2019-01-19T08:40:32.063Z,12.55
2019-01-19T08:43:20.827Z,14.63
2019-01-19T08:45:50.581Z,13.18
2019-01-19T08:48:20.633Z,11.73
2019-01-19T08:50:50.394Z,12.33
2019-01-19T08:53:20.130Z,13.70
2019-01-19T08:55:49.912Z,14.10
2019-01-19T08:58:19.798Z,12.00
2019-01-19T09:00:49.562Z,16.48
2019-01-19T09:03:19.321Z,13.80
2019-01-19T09:05:49.068Z,13.50
2019-01-19T09:08:18.803Z,13.20
2019-01-19T09:10:48.451Z,14.00
2019-01-19T09:13:18.091Z,13.22
2019-01-19T09:15:47.946Z,14.50
2019-01-19T09:18:17.699Z,14.07
2019-01-19T09:20:47.392Z,12.07
2019-01-19T09:23:24.408Z,12.33
2019-01-19T09:25:54.127Z,11.23
2019-01-19T09:28:23.862Z,11.90
2019-01-19T09:30:53.538Z,14.30
2019-01-19T09:33:23.477Z,13.40
2019-01-19T09:35:53.319Z,18.25
2019-01-19T09:38:23.000Z,13.67
2019-01-19T09:40:52.790Z,14.13
2019-01-19T09:43:22.524Z,13.30
2019-01-19T09:45:52.293Z,12.97
2019-01-19T09:48:22.164Z,18.32
2019-01-19T09:50:51.940Z,12.13
2019-01-19T09:53:21.826Z,15.70
2019-01-19T09:55:51.610Z,16.35
2019-01-19T09:58:21.198Z,14.93
2019-01-19T10:00:50.865Z,14.87
2019-01-19T10:03:20.576Z,16.27
2019-01-19T10:05:50.567Z,15.50
2019-01-19T10:08:20.360Z,14.50
2019-01-19T10:10:50.149Z,14.27
2019-01-19T10:13:19.863Z,13.40
2019-01-19T10:15:49.583Z,13.43
2019-01-19T10:18:20.170Z,12.83
2019-01-19T10:20:49.909Z,16.50
2019-01-19T10:23:19.580Z,13.27
2019-01-19T10:25:49.317Z,12.43
2019-01-19T10:28:19.027Z,15.50
2019-01-19T10:30:48.763Z,14.53
2019-01-19T10:33:19.348Z,13.10
2019-01-19T10:35:49.472Z,14.53
2019-01-19T10:38:19.235Z,14.13
2019-01-19T10:40:48.868Z,12.53
2019-01-19T10:43:18.748Z,13.90
2019-01-19T10:45:48.494Z,11.57
2019-01-19T10:48:18.138Z,11.27
2019-01-19T10:50:47.825Z,13.53
2019-01-19T10:53:17.615Z,13.07
2019-01-19T10:55:47.360Z,13.07
2019-01-19T10:58:16.968Z,10.83
2019-01-19T11:00:46.657Z,14.77
2019-01-19T11:03:16.617Z,15.37
2019-01-19T11:05:46.407Z,12.03
2019-01-19T11:08:16.262Z,12.07
2019-01-19T11:10:45.929Z,14.27
2019-01-19T11:13:15.652Z,14.10
2019-01-19T11:15:45.329Z,15.07
2019-01-19T11:18:15.711Z,13.17
2019-01-19T11:20:45.327Z,13.33
2019-01-19T11:23:14.975Z,16.07
2019-01-19T11:25:44.740Z,15.57
2019-01-19T11:28:14.344Z,16.67
2019-01-19T11:30:44.049Z,15.60
2019-01-19T11:33:13.701Z,16.47
2019-01-19T11:35:43.412Z,17.30
2019-01-19T11:38:19.909Z,18.00
2019-01-19T11:40:44.588Z,18.03
2019-01-19T11:43:14.242Z,18.43
2019-01-19T11:45:43.997Z,20.43
2019-01-19T11:48:13.731Z,22.90
2019-01-19T11:50:43.446Z,19.77
2019-01-19T11:53:13.154Z,18.27
2019-01-19T11:55:42.916Z,17.07
2019-01-19T11:58:12.711Z,15.27
2019-01-19T12:00:43.257Z,16.83
2019-01-19T12:03:12.911Z,17.40
2019-01-19T12:05:42.594Z,17.13
2019-01-19T12:08:19.384Z,17.17
2019-01-19T12:10:44.619Z,17.57
2019-01-19T12:13:14.357Z,13.93
2019-01-19T12:15:44.162Z,13.67
2019-01-19T12:18:13.819Z,14.77
2019-01-19T12:20:45.730Z,19.33
2019-01-19T12:23:15.419Z,13.57
2019-01-19T12:25:45.209Z,13.80
2019-01-19T12:31:44.837Z,12.83
2019-01-19T12:34:14.599Z,11.47
2019-01-19T12:36:44.312Z,14.43
2019-01-19T12:39:14.053Z,12.93
2019-01-19T12:41:43.685Z,12.07
2019-01-19T12:44:13.367Z,11.80
2019-01-19T12:46:42.949Z,13.47
2019-01-19T12:49:12.679Z,10.60
2019-01-19T12:51:42.286Z,13.93
2019-01-19T12:54:12.059Z,12.80
2019-01-19T12:56:41.858Z,10.23
2019-01-19T12:59:11.563Z,13.03
2019-01-19T13:01:42.342Z,11.10
2019-01-19T13:04:12.124Z,13.23
2019-01-19T13:07:04.419Z,14.67
2019-01-19T13:09:43.664Z,13.00
2019-01-19T13:13:09.653Z,10.17
2019-01-19T13:16:15.962Z,12.43
2019-01-19T13:18:51.220Z,12.33
2019-01-19T13:21:55.428Z,13.50
2019-01-19T13:24:59.236Z,12.47
2019-01-19T13:28:06.971Z,14.70
2019-01-19T13:31:14.550Z,14.00
2019-01-19T13:34:30.846Z,13.70
2019-01-19T13:37:42.957Z,13.80
2019-01-19T13:40:52.126Z,12.83
2019-01-19T13:43:51.709Z,14.07
2019-01-19T13:46:35.427Z,13.53
2019-01-19T13:50:00.938Z,13.17
2019-01-19T13:52:55.762Z,10.30
2019-01-19T13:55:59.949Z,12.93
2019-01-19T13:58:58.971Z,11.07
2019-01-19T14:02:17.193Z,13.13
2019-01-19T14:05:03.485Z,14.87
2019-01-19T14:08:11.039Z,12.63
2019-01-19T14:11:08.492Z,12.63
2019-01-19T14:14:27.143Z,11.00
2019-01-19T14:17:37.011Z,14.47
2019-01-19T14:20:17.266Z,11.83
2019-01-19T14:23:24.452Z,17.13
2019-01-19T14:26:19.989Z,15.23
2019-01-19T14:29:32.052Z,11.83
2019-01-19T14:35:47.384Z,14.87
2019-01-19T14:38:58.839Z,12.87
2019-01-19T14:42:00.342Z,14.67
2019-01-19T14:44:59.292Z,15.73
2019-01-19T14:48:09.942Z,12.63
2019-01-19T14:51:02.920Z,14.60
2019-01-19T14:53:45.885Z,15.20
2019-01-19T14:56:31.309Z,11.97
2019-01-19T14:59:26.263Z,12.60
2019-01-19T15:02:35.326Z,12.07
2019-01-19T15:05:24.717Z,14.37
2019-01-19T15:08:33.957Z,12.30
2019-01-19T15:11:26.523Z,14.17
2019-01-19T15:14:46.569Z,13.23
2019-01-19T15:17:41.308Z,14.00
2019-01-19T15:20:45.384Z,12.27
2019-01-19T15:24:15.549Z,11.73
2019-01-19T15:27:12.532Z,12.27
2019-01-19T15:30:14.399Z,12.27
2019-01-19T15:33:09.445Z,14.27
2019-01-19T15:36:27.434Z,14.03
2019-01-19T15:39:25.856Z,14.53
2019-01-19T15:42:41.662Z,15.63
2019-01-19T15:45:46.744Z,14.43
2019-01-19T15:49:00.032Z,12.27
2019-01-19T15:51:53.090Z,15.23
2019-01-19T15:54:53.618Z,14.97
2019-01-19T15:58:01.888Z,12.03
2019-01-19T16:01:04.479Z,13.53
2019-01-19T16:04:18.810Z,14.90
2019-01-19T16:07:26.877Z,13.72
2019-01-19T16:10:39.660Z,17.65
2019-01-19T16:14:05.329Z,15.00
2019-01-19T16:17:20.112Z,15.77
2019-01-19T16:20:45.911Z,15.38
2019-01-19T16:23:49.327Z,16.87
2019-01-19T16:27:04.950Z,40.93
2019-01-19T16:29:57.497Z,22.90
2019-01-19T16:32:51.732Z,20.68
2019-01-19T16:35:43.824Z,16.85
2019-01-19T16:38:38.288Z,18.75
2019-01-19T16:41:49.159Z,15.43
2019-01-19T16:45:05.904Z,18.02
2019-01-19T16:48:08.970Z,18.87
2019-01-19T16:51:01.206Z,20.60
2019-01-19T16:53:47.679Z,18.40
2019-01-19T16:56:58.219Z,17.82
2019-01-19T16:59:48.906Z,23.95
2019-01-19T17:02:43.978Z,20.80
2019-01-19T17:05:56.884Z,23.32
2019-01-19T17:09:04.594Z,21.93
2019-01-19T17:12:09.667Z,21.15
2019-01-19T17:14:58.398Z,24.05
2019-01-19T17:17:51.393Z,22.98
2019-01-19T17:20:32.416Z,22.73
2019-01-19T17:23:52.025Z,24.05
2019-01-19T17:27:06.384Z,20.88
2019-01-19T17:30:12.854Z,23.67
2019-01-19T17:33:39.696Z,24.12
2019-01-19T17:36:27.052Z,30.10
2019-01-19T17:39:40.127Z,22.75
2019-01-19T17:42:49.789Z,24.50
2019-01-19T17:46:09.484Z,23.50
2019-01-19T17:49:07.761Z,29.95
2019-01-19T17:52:24.616Z,33.83
2019-01-19T17:55:34.473Z,28.27
2019-01-19T17:58:41.253Z,33.33
2019-01-19T18:01:48.259Z,30.35
2019-01-19T18:04:40.004Z,35.13
2019-01-19T18:08:04.042Z,32.05
2019-01-19T18:11:16.111Z,31.65
2019-01-19T18:14:09.010Z,47.70
2019-01-19T18:17:11.136Z,106.67
2019-01-19T18:20:23.538Z,35.25
2019-01-19T18:23:21.887Z,33.95
2019-01-19T18:26:34.818Z,32.28
2019-01-19T18:30:00.341Z,33.42
2019-01-19T18:33:02.227Z,31.12
2019-01-19T18:36:00.798Z,29.07
2019-01-19T18:38:50.824Z,30.60
2019-01-19T18:42:10.393Z,34.15
2019-01-19T18:45:18.118Z,28.38
2019-01-19T18:48:22.349Z,33.90
2019-01-19T18:51:04.662Z,27.30
2019-01-19T18:54:15.571Z,29.23
2019-01-19T18:57:24.208Z,28.85
2019-01-19T19:00:37.984Z,29.92
2019-01-19T19:03:43.872Z,28.92
2019-01-19T19:07:05.727Z,30.08
2019-01-19T19:10:22.563Z,29.75
2019-01-19T19:13:14.499Z,30.35
2019-01-19T19:16:49.726Z,33.88
2019-01-19T19:19:52.474Z,40.05
2019-01-19T19:22:50.616Z,42.05
2019-01-19T19:25:58.879Z,34.13
2019-01-19T19:29:24.820Z,34.43
2019-01-19T19:32:16.625Z,38.65
2019-01-19T19:35:21.627Z,33.60
2019-01-19T19:38:28.762Z,37.15
2019-01-19T19:41:25.687Z,34.33
2019-01-19T19:44:16.982Z,38.05
2019-01-19T19:47:38.594Z,33.63
2019-01-19T19:50:46.423Z,36.42
2019-01-19T19:53:16.298Z,37.55
2019-01-19T19:55:44.484Z,40.30
2019-01-19T19:58:14.285Z,36.00
2019-01-19T20:00:44.244Z,33.67
2019-01-19T20:03:14.092Z,52.75
2019-01-19T20:05:43.944Z,57.40
2019-01-19T20:08:13.740Z,49.65
2019-01-19T20:10:43.641Z,47.60
2019-01-19T20:13:13.577Z,47.38
2019-01-19T20:15:43.404Z,36.42
2019-01-19T20:18:13.456Z,31.62
2019-01-19T20:20:43.458Z,33.88
2019-01-19T20:23:13.429Z,47.88
2019-01-19T20:25:43.240Z,49.90
2019-01-19T20:28:13.153Z,44.25
2019-01-19T20:30:43.086Z,49.15
2019-01-19T20:33:13.122Z,39.33
2019-01-19T20:35:42.827Z,37.95
2019-01-19T20:38:12.813Z,43.25
2019-01-19T20:40:42.642Z,32.70
2019-01-19T20:43:12.618Z,39.80
2019-01-19T20:45:42.411Z,36.95
2019-01-19T20:48:12.810Z,33.75
2019-01-19T20:50:42.592Z,33.65
2019-01-19T20:53:12.350Z,27.20
2019-01-19T20:55:42.058Z,29.42
2019-01-19T20:58:11.784Z,34.13
2019-01-19T21:00:41.539Z,29.43
2019-01-19T21:03:11.188Z,30.97
2019-01-19T21:05:40.824Z,31.35
2019-01-19T21:08:10.590Z,28.60
2019-01-19T21:10:40.244Z,37.95
2019-01-19T21:13:09.998Z,37.73
2019-01-19T21:15:39.758Z,30.95
2019-01-19T21:18:09.525Z,34.78
2019-01-19T21:20:39.162Z,35.65
2019-01-19T21:23:08.861Z,38.45
2019-01-19T21:25:38.582Z,34.03
2019-01-19T21:28:08.329Z,37.05
2019-01-19T21:30:38.043Z,40.20
2019-01-19T21:33:07.704Z,39.03
2019-01-19T21:35:37.518Z,36.65
2019-01-19T21:38:07.318Z,34.00
2019-01-19T21:40:39.193Z,34.38
2019-01-19T21:43:08.683Z,37.35
2019-01-19T21:45:38.569Z,28.30
2019-01-19T21:48:08.312Z,35.40
2019-01-19T21:50:38.046Z,30.35
2019-01-19T21:53:08.032Z,29.77
2019-01-19T21:55:37.774Z,35.45
2019-01-19T21:58:07.415Z,40.08
2019-01-19T22:00:37.168Z,52.85
2019-01-19T22:03:06.937Z,32.42
2019-01-19T22:05:36.578Z,45.55
2019-01-19T22:08:06.387Z,39.92
2019-01-19T22:10:36.169Z,32.35
2019-01-19T22:13:06.122Z,45.70
2019-01-19T22:15:35.899Z,28.10
2019-01-19T22:18:05.506Z,43.28
2019-01-19T22:20:35.138Z,45.65
2019-01-19T22:23:04.864Z,50.52
2019-01-19T22:25:34.674Z,30.82
2019-01-19T22:28:04.683Z,31.75
2019-01-19T22:30:34.497Z,32.10
2019-01-19T22:33:04.645Z,39.40
2019-01-19T22:35:34.560Z,31.25
2019-01-19T22:38:04.328Z,41.53
2019-01-19T22:40:33.979Z,47.73
2019-01-19T22:43:06.736Z,62.03
2019-01-19T22:45:36.511Z,39.55
2019-01-19T22:48:06.528Z,40.60
2019-01-19T22:50:36.275Z,41.30
2019-01-19T22:53:07.090Z,45.15
2019-01-19T22:55:36.860Z,47.45
2019-01-19T22:58:06.537Z,50.03
2019-01-19T23:01:13.926Z,53.10
2019-01-19T23:03:43.704Z,38.10
2019-01-19T23:06:13.345Z,37.13
2019-01-19T23:08:43.057Z,45.12
2019-01-19T23:11:12.903Z,39.92
2019-01-19T23:13:44.126Z,40.25
2019-01-19T23:16:13.933Z,37.45
2019-01-19T23:18:43.690Z,40.83
2019-01-19T23:21:13.360Z,53.13
2019-01-19T23:23:43.125Z,37.67
2019-01-19T23:26:13.031Z,40.65
2019-01-19T23:28:42.824Z,38.45
2019-01-19T23:31:12.570Z,40.20
2019-01-19T23:33:42.210Z,42.65
2019-01-19T23:36:11.834Z,30.55
2019-01-19T23:38:41.471Z,39.58
2019-01-19T23:41:11.230Z,33.23
2019-01-19T23:43:40.870Z,39.83
2019-01-19T23:46:10.544Z,45.80
2019-01-19T23:48:40.307Z,45.85
2019-01-19T23:51:10.100Z,33.67
2019-01-19T23:53:39.764Z,40.30
2019-01-19T23:56:09.444Z,43.92
2019-01-19T23:58:39.111Z,41.35
